Time;durP1;ratioP1;P1;durP2;ratioP2;P2;SDS_P1;SDS_P2;PMS_P1;PMS_P2;Temp;Humidity;BMP_temperature;BMP_pressure;BME280_temperature;BME280_humidity;BME280_pressure;Samples;Min_cycle;Max_cycle;Signal;HPM_P1;HPM_P2
2021/08/08 00:01:02;;;;;;;4.32;3.92;;;16.00;99.90;;;;;;5030677;28;20215;-87
2021/08/08 00:03:29;;;;;;;4.38;3.97;;;16.00;99.90;;;;;;5030594;28;20622;-86
2021/08/08 00:05:56;;;;;;;5.28;4.57;;;15.90;99.90;;;;;;5043310;28;20217;-85
2021/08/08 00:08:28;;;;;;;5.20;4.80;;;16.00;99.90;;;;;;5050647;28;20213;-87
2021/08/08 00:10:55;;;;;;;4.75;4.35;;;15.90;99.90;;;;;;5048737;28;20198;-80
2021/08/08 00:13:22;;;;;;;7.03;5.38;;;15.90;99.90;;;;;;5047810;28;20234;-87
2021/08/08 00:15:50;;;;;;;7.40;6.30;;;15.90;99.90;;;;;;5048494;28;20288;-79
2021/08/08 00:18:17;;;;;;;9.23;7.30;;;15.90;99.90;;;;;;5041084;28;20206;-82
2021/08/08 00:20:44;;;;;;;7.03;6.43;;;15.90;99.90;;;;;;5028979;28;20222;-81
2021/08/08 00:23:11;;;;;;;9.52;7.28;;;16.00;99.90;;;;;;5032076;28;20207;-86
2021/08/08 00:25:38;;;;;;;8.18;6.57;;;16.00;99.90;;;;;;5041585;28;20206;-87
2021/08/08 00:28:07;;;;;;;7.20;6.50;;;16.00;99.90;;;;;;5053062;28;20218;-86
2021/08/08 00:30:34;;;;;;;6.85;6.07;;;16.00;99.90;;;;;;5052818;28;20220;-84
2021/08/08 00:33:02;;;;;;;9.02;6.03;;;16.00;99.90;;;;;;5051885;28;20190;-86
2021/08/08 00:35:29;;;;;;;8.98;5.80;;;16.00;99.90;;;;;;5054125;28;20213;-86
2021/08/08 00:37:55;;;;;;;6.30;5.70;;;16.00;99.90;;;;;;5052387;28;20206;-80
2021/08/08 00:40:22;;;;;;;6.20;5.35;;;16.00;99.90;;;;;;5050141;28;20241;-87
2021/08/08 00:42:49;;;;;;;5.63;5.10;;;16.00;99.90;;;;;;5052916;28;20197;-90
2021/08/08 00:45:17;;;;;;;5.88;5.22;;;16.10;99.90;;;;;;5052285;28;20373;-87
2021/08/08 00:47:45;;;;;;;9.18;6.43;;;16.00;99.90;;;;;;5051860;28;20202;-84
2021/08/08 00:50:16;;;;;;;7.78;5.60;;;16.00;99.90;;;;;;5050660;28;20218;-88
2021/08/08 00:52:43;;;;;;;9.07;5.53;;;16.10;99.90;;;;;;5049739;28;20206;-87
2021/08/08 00:55:11;;;;;;;9.05;4.95;;;16.00;99.90;;;;;;5048410;28;20752;-81
2021/08/08 00:57:38;;;;;;;12.40;5.88;;;16.00;99.90;;;;;;5050304;28;20213;-84
2021/08/08 01:00:07;;;;;;;13.85;4.57;;;16.00;99.90;;;;;;5050770;28;20201;-84
2021/08/08 01:02:37;;;;;;;15.15;5.30;;;16.00;99.90;;;;;;5050800;28;20217;-83
2021/08/08 01:05:07;;;;;;;15.15;4.80;;;16.10;99.90;;;;;;5051429;28;20221;-84
2021/08/08 01:07:42;;;;;;;14.20;5.25;;;16.20;99.90;;;;;;5052050;28;20201;-86
2021/08/08 01:10:10;;;;;;;10.55;4.38;;;16.20;99.90;;;;;;5052002;28;20198;-88
2021/08/08 01:12:39;;;;;;;15.38;4.70;;;16.30;99.90;;;;;;5052680;28;20201;-87
2021/08/08 01:15:07;;;;;;;13.07;4.35;;;16.30;99.90;;;;;;5050805;28;20261;-88
2021/08/08 01:17:35;;;;;;;14.68;4.63;;;16.40;99.90;;;;;;5050950;28;20209;-88
2021/08/08 01:20:05;;;;;;;9.82;4.32;;;16.40;99.90;;;;;;5051499;28;20288;-87
2021/08/08 01:22:33;;;;;;;12.27;4.15;;;16.50;99.90;;;;;;5050374;28;20230;-87
2021/08/08 01:25:04;;;;;;;12.82;4.45;;;16.50;99.90;;;;;;5052770;28;20209;-86
2021/08/08 01:27:32;;;;;;;13.35;4.90;;;16.60;99.90;;;;;;5052563;28;20255;-87
2021/08/08 01:29:59;;;;;;;15.10;4.95;;;16.60;99.90;;;;;;5051112;28;20212;-85
2021/08/08 01:32:25;;;;;;;12.63;4.75;;;16.70;99.90;;;;;;5052485;28;20209;-82
2021/08/08 01:34:52;;;;;;;15.57;5.05;;;16.70;99.90;;;;;;5052195;28;20205;-89
2021/08/08 01:37:21;;;;;;;17.35;5.15;;;16.70;99.90;;;;;;5051130;28;20194;-88
2021/08/08 01:39:51;;;;;;;15.02;4.82;;;16.70;99.90;;;;;;5048760;28;20229;-81
2021/08/08 01:42:21;;;;;;;14.40;5.05;;;16.80;99.90;;;;;;5049457;28;20253;-86
2021/08/08 01:44:51;;;;;;;18.20;6.55;;;16.80;99.90;;;;;;5068228;28;20221;-87
2021/08/08 01:47:22;;;;;;;9.82;5.75;;;16.90;99.90;;;;;;5055098;28;20186;-87
2021/08/08 01:49:49;;;;;;;16.40;6.00;;;16.90;99.90;;;;;;5053975;28;20516;-88
2021/08/08 01:52:17;;;;;;;22.58;7.78;;;17.00;99.90;;;;;;5053028;28;20198;-87
2021/08/08 01:54:44;;;;;;;19.00;7.90;;;17.00;99.90;;;;;;5051320;28;20221;-88
2021/08/08 01:57:11;;;;;;;15.60;6.53;;;17.00;99.90;;;;;;5050849;28;20209;-88
2021/08/08 01:59:39;;;;;;;14.10;6.60;;;17.00;99.90;;;;;;5052658;28;20197;-87
2021/08/08 02:02:11;;;;;;;15.73;7.43;;;17.00;99.90;;;;;;5037600;28;20234;-86
2021/08/08 02:04:39;;;;;;;20.02;7.30;;;17.00;99.90;;;;;;5030588;28;20201;-88
2021/08/08 02:07:08;;;;;;;16.60;8.48;;;17.10;99.90;;;;;;5033969;28;20252;-89
2021/08/08 02:09:36;;;;;;;18.95;7.75;;;17.10;99.90;;;;;;5052143;28;20237;-89
2021/08/08 02:12:03;;;;;;;21.13;8.30;;;17.10;99.90;;;;;;5050347;28;20205;-84
2021/08/08 02:14:29;;;;;;;14.43;7.38;;;17.20;99.90;;;;;;5051470;28;20233;-80
2021/08/08 02:16:58;;;;;;;18.40;7.88;;;17.10;99.90;;;;;;5051133;28;20205;-84
2021/08/08 02:19:24;;;;;;;17.33;7.82;;;17.20;99.90;;;;;;5050928;28;20786;-87
2021/08/08 02:21:51;;;;;;;16.60;7.60;;;17.20;99.90;;;;;;5051909;28;20225;-87
2021/08/08 02:24:18;;;;;;;15.10;7.57;;;17.20;99.90;;;;;;5051456;28;20218;-88
2021/08/08 02:26:45;;;;;;;16.77;7.97;;;17.30;99.90;;;;;;5051471;28;20201;-81
2021/08/08 02:29:12;;;;;;;18.10;9.23;;;17.30;99.90;;;;;;5050635;28;20206;-86
2021/08/08 02:31:41;;;;;;;22.95;8.90;;;17.30;99.90;;;;;;5052598;28;20194;-88
2021/08/08 02:34:10;;;;;;;21.90;9.52;;;17.30;99.90;;;;;;5051356;28;20201;-84
2021/08/08 02:36:37;;;;;;;23.95;11.07;;;17.30;99.90;;;;;;5051725;28;20217;-88
2021/08/08 02:39:04;;;;;;;20.77;10.00;;;17.20;99.90;;;;;;5050943;28;20230;-86
2021/08/08 02:41:31;;;;;;;24.30;10.07;;;17.20;99.90;;;;;;5051226;28;20519;-88
2021/08/08 02:43:58;;;;;;;21.10;9.50;;;17.20;99.90;;;;;;5051094;28;20205;-82
2021/08/08 02:46:25;;;;;;;21.58;9.60;;;17.20;99.90;;;;;;5049740;28;20213;-86
2021/08/08 02:48:52;;;;;;;19.50;9.15;;;17.20;99.90;;;;;;5050687;28;20574;-80
2021/08/08 02:51:20;;;;;;;18.95;8.45;;;17.10;99.90;;;;;;5050188;28;20202;-86
2021/08/08 02:53:47;;;;;;;21.27;7.43;;;17.10;99.90;;;;;;5049378;28;20193;-88
2021/08/08 02:56:14;;;;;;;19.85;8.27;;;17.10;99.90;;;;;;5048249;28;20210;-80
2021/08/08 02:58:41;;;;;;;26.55;9.93;;;17.10;99.90;;;;;;5032706;28;20206;-86
2021/08/08 03:01:10;;;;;;;22.85;8.20;;;17.10;99.90;;;;;;5029537;28;20201;-88
2021/08/08 03:03:37;;;;;;;19.95;8.10;;;17.10;99.90;;;;;;5027443;28;20207;-91
2021/08/08 03:06:10;;;;;;;22.58;9.30;;;17.10;99.90;;;;;;5039176;28;20519;-78
2021/08/08 03:08:39;;;;;;;19.10;7.43;;;17.10;99.90;;;;;;5049393;28;20240;-90
2021/08/08 03:11:05;;;;;;;23.90;8.80;;;17.10;99.90;;;;;;5049461;28;20229;-81
2021/08/08 03:13:32;;;;;;;18.20;8.70;;;17.10;99.90;;;;;;5040082;28;20249;-86
2021/08/08 03:15:59;;;;;;;21.20;8.05;;;17.20;99.90;;;;;;5028287;28;20198;-79
2021/08/08 03:18:26;;;;;;;20.67;9.07;;;17.10;99.90;;;;;;5034391;28;20205;-85
2021/08/08 03:20:53;;;;;;;14.90;7.45;;;17.10;99.90;;;;;;5049330;28;20202;-81
2021/08/08 03:23:20;;;;;;;24.13;7.65;;;17.10;99.90;;;;;;5048133;28;20232;-86
2021/08/08 03:25:48;;;;;;;17.77;6.97;;;17.10;99.90;;;;;;5048600;28;20190;-86
2021/08/08 03:28:15;;;;;;;22.17;7.63;;;17.10;99.90;;;;;;5047711;28;20202;-87
2021/08/08 03:30:42;;;;;;;18.45;7.30;;;17.10;99.90;;;;;;5035491;28;20206;-86
2021/08/08 03:33:09;;;;;;;19.05;7.95;;;17.20;99.90;;;;;;5028607;28;20195;-82
2021/08/08 03:35:36;;;;;;;18.33;7.35;;;17.20;99.90;;;;;;5046971;28;20210;-86
2021/08/08 03:38:04;;;;;;;17.60;7.00;;;17.20;99.90;;;;;;5047802;28;20202;-86
2021/08/08 03:40:31;;;;;;;19.85;7.18;;;17.20;99.90;;;;;;5044405;28;20226;-87
2021/08/08 03:42:59;;;;;;;19.75;7.47;;;17.20;99.90;;;;;;5032238;28;20219;-82
2021/08/08 03:45:25;;;;;;;23.35;7.90;;;17.20;99.90;;;;;;5032866;28;20206;-86
2021/08/08 03:47:53;;;;;;;19.92;8.48;;;17.20;99.90;;;;;;5034091;28;20202;-86
2021/08/08 03:50:19;;;;;;;30.33;8.75;;;17.20;99.90;;;;;;5044907;28;20220;-85
2021/08/08 03:52:46;;;;;;;19.33;7.15;;;17.20;99.90;;;;;;5054355;28;20212;-81
2021/08/08 03:55:13;;;;;;;16.35;6.53;;;17.20;99.90;;;;;;5054195;28;20194;-86
2021/08/08 03:57:40;;;;;;;22.23;7.40;;;17.20;99.90;;;;;;5053626;28;20205;-88
2021/08/08 04:00:10;;;;;;;18.92;7.32;;;17.10;99.90;;;;;;5053297;28;20194;-92
2021/08/08 04:02:37;;;;;;;21.00;6.93;;;17.10;99.90;;;;;;5038769;28;20222;-90
2021/08/08 04:05:04;;;;;;;27.38;8.48;;;17.10;99.90;;;;;;5033479;28;20202;-89
2021/08/08 04:07:31;;;;;;;22.17;7.75;;;17.10;99.90;;;;;;5031716;28;20214;-86
2021/08/08 04:09:58;;;;;;;21.52;7.10;;;17.20;99.90;;;;;;5032984;28;20245;-89
2021/08/08 04:12:25;;;;;;;24.42;7.75;;;17.20;99.90;;;;;;5049272;28;20610;-91
2021/08/08 04:14:52;;;;;;;21.80;7.20;;;17.10;99.90;;;;;;5048899;28;20229;-89
2021/08/08 04:17:20;;;;;;;25.35;6.90;;;17.10;99.90;;;;;;5048963;28;20205;-90
2021/08/08 04:19:47;;;;;;;23.35;7.30;;;17.20;99.90;;;;;;5049627;28;20202;-92
2021/08/08 04:22:13;;;;;;;13.95;6.07;;;17.10;99.90;;;;;;5050012;28;20225;-86
2021/08/08 04:24:40;;;;;;;18.08;5.93;;;17.20;99.90;;;;;;5054832;28;20213;-88
2021/08/08 04:27:07;;;;;;;18.50;6.60;;;17.20;99.90;;;;;;5053213;28;20205;-87
2021/08/08 04:29:34;;;;;;;14.38;5.72;;;17.20;99.90;;;;;;5054212;28;20264;-87
2021/08/08 04:32:01;;;;;;;17.40;5.85;;;17.20;99.90;;;;;;5053797;28;20692;-89
2021/08/08 04:34:31;;;;;;;17.92;6.85;;;17.10;99.90;;;;;;5054141;28;20235;-88
2021/08/08 04:36:58;;;;;;;17.65;6.07;;;17.10;99.90;;;;;;5054153;28;20202;-86
2021/08/08 04:39:25;;;;;;;11.35;4.55;;;17.10;99.90;;;;;;5052311;28;20229;-77
2021/08/08 04:41:53;;;;;;;19.20;5.63;;;17.20;99.90;;;;;;5053649;28;20232;-91
2021/08/08 04:44:20;;;;;;;14.38;4.20;;;17.20;99.90;;;;;;5052630;28;20237;-86
2021/08/08 04:46:47;;;;;;;12.65;5.25;;;17.20;99.90;;;;;;5053805;28;20232;-90
2021/08/08 04:49:14;;;;;;;23.13;6.82;;;17.20;99.90;;;;;;5054129;28;20205;-93
2021/08/08 04:51:43;;;;;;;20.15;6.03;;;17.20;99.90;;;;;;5053724;28;20213;-92
2021/08/08 04:54:09;;;;;;;16.63;6.05;;;17.10;99.90;;;;;;5054008;28;20212;-89
2021/08/08 04:56:36;;;;;;;22.23;7.03;;;17.20;99.90;;;;;;5054809;28;20293;-86
2021/08/08 04:59:04;;;;;;;15.95;6.60;;;17.20;99.90;;;;;;5044223;28;20209;-89
2021/08/08 05:01:30;;;;;;;17.25;6.03;;;17.20;99.90;;;;;;5031051;28;20198;-84
2021/08/08 05:03:57;;;;;;;11.82;4.97;;;17.20;99.90;;;;;;5033135;28;20206;-88
2021/08/08 05:06:24;;;;;;;17.25;5.63;;;17.10;99.90;;;;;;5030761;28;20199;-78
2021/08/08 05:08:52;;;;;;;12.93;4.68;;;17.10;99.90;;;;;;5030056;28;20531;-93
2021/08/08 05:11:20;;;;;;;17.45;4.97;;;17.10;99.90;;;;;;5031024;28;20225;-92
2021/08/08 05:13:46;;;;;;;17.95;5.70;;;17.10;99.90;;;;;;5042601;28;20249;-86
2021/08/08 05:16:13;;;;;;;13.18;4.32;;;17.20;99.90;;;;;;5038630;28;20206;-88
2021/08/08 05:18:40;;;;;;;12.68;4.55;;;17.20;99.90;;;;;;5043999;28;20213;-77
2021/08/08 05:21:07;;;;;;;11.65;4.82;;;17.20;99.90;;;;;;5050971;28;20209;-91
2021/08/08 05:23:36;;;;;;;12.77;3.90;;;17.20;99.90;;;;;;5053278;28;20222;-83
2021/08/08 05:26:05;;;;;;;13.13;5.05;;;17.20;99.90;;;;;;5051575;28;20229;-93
2021/08/08 05:28:32;;;;;;;16.77;4.85;;;17.20;99.90;;;;;;5049499;28;20221;-89
2021/08/08 05:30:59;;;;;;;21.58;4.47;;;17.30;99.90;;;;;;5053041;28;20703;-89
2021/08/08 05:33:29;;;;;;;12.73;4.28;;;17.20;99.90;;;;;;5052551;28;20213;-88
2021/08/08 05:35:56;;;;;;;13.43;5.15;;;17.20;99.90;;;;;;5051622;28;20297;-92
2021/08/08 05:38:25;;;;;;;18.75;5.25;;;17.30;99.90;;;;;;5060584;28;20212;-76
2021/08/08 05:40:52;;;;;;;13.68;4.03;;;17.30;99.90;;;;;;5053734;28;20197;-77
2021/08/08 05:43:22;;;;;;;18.35;5.13;;;17.30;99.90;;;;;;5052115;28;20275;-88
2021/08/08 05:45:48;;;;;;;15.70;4.85;;;17.30;99.90;;;;;;5052144;28;20230;-88
2021/08/08 05:48:15;;;;;;;13.98;4.22;;;17.30;99.90;;;;;;5035002;28;20215;-78
2021/08/08 05:50:42;;;;;;;11.73;4.30;;;17.30;99.90;;;;;;5030725;28;20583;-83
2021/08/08 05:53:10;;;;;;;10.27;4.13;;;17.30;99.90;;;;;;5049422;28;20210;-83
2021/08/08 05:55:41;;;;;;;14.07;3.80;;;17.30;99.90;;;;;;5049115;28;20205;-80
2021/08/08 05:58:08;;;;;;;13.05;3.90;;;17.30;99.90;;;;;;5051693;28;20598;-95
2021/08/08 06:00:36;;;;;;;11.23;3.88;;;17.30;99.90;;;;;;5052210;28;20196;-91
2021/08/08 06:03:07;;;;;;;11.30;3.72;;;17.40;99.90;;;;;;5039755;28;20234;-82
2021/08/08 06:05:33;;;;;;;12.07;3.85;;;17.40;99.90;;;;;;5030204;28;20206;-85
2021/08/08 06:08:00;;;;;;;23.00;4.32;;;17.40;99.90;;;;;;5044317;28;20288;-88
2021/08/08 06:10:27;;;;;;;13.60;4.13;;;17.50;99.90;;;;;;5049713;28;20206;-79
2021/08/08 06:12:54;;;;;;;14.27;3.30;;;17.60;99.90;;;;;;5049776;28;20213;-83
2021/08/08 06:15:21;;;;;;;15.88;4.30;;;17.70;99.90;;;;;;5051581;28;20202;-92
2021/08/08 06:17:50;;;;;;;14.52;4.90;;;17.80;99.90;;;;;;5051931;28;20896;-86
2021/08/08 06:20:16;;;;;;;14.07;4.60;;;17.80;99.90;;;;;;5050143;28;20600;-88
2021/08/08 06:22:43;;;;;;;21.40;6.15;;;17.80;99.90;;;;;;5036568;28;20458;-88
2021/08/08 06:25:10;;;;;;;24.90;6.07;;;17.70;99.90;;;;;;5048944;28;20198;-82
2021/08/08 06:27:37;;;;;;;16.55;4.97;;;17.70;99.90;;;;;;5048932;28;20213;-81
2021/08/08 06:30:05;;;;;;;17.52;4.40;;;17.70;99.90;;;;;;5048804;28;20213;-81
2021/08/08 06:32:32;;;;;;;19.52;5.10;;;17.70;99.90;;;;;;5048933;28;20213;-87
2021/08/08 06:35:01;;;;;;;17.30;4.75;;;17.70;99.90;;;;;;5050286;28;20198;-87
2021/08/08 06:37:27;;;;;;;15.13;4.03;;;17.70;99.90;;;;;;5048026;28;20225;-88
2021/08/08 06:39:54;;;;;;;16.73;4.03;;;17.80;99.90;;;;;;5049251;28;20229;-77
2021/08/08 06:42:22;;;;;;;11.43;4.30;;;17.80;99.90;;;;;;5042414;28;20230;-82
2021/08/08 06:44:49;;;;;;;11.90;3.55;;;17.90;99.90;;;;;;5031935;28;20210;-79
2021/08/08 06:47:15;;;;;;;15.38;3.78;;;18.00;99.90;;;;;;5027969;28;20202;-78
2021/08/08 06:49:42;;;;;;;18.60;4.30;;;18.00;99.90;;;;;;5043429;28;20225;-78
2021/08/08 06:52:10;;;;;;;15.43;4.20;;;18.00;99.90;;;;;;5047372;28;20497;-82
2021/08/08 06:54:37;;;;;;;17.48;4.20;;;18.00;99.90;;;;;;5049204;28;20217;-86
2021/08/08 06:57:04;;;;;;;20.95;4.60;;;18.10;99.90;;;;;;5050060;28;20206;-92
2021/08/08 06:59:31;;;;;;;15.85;4.57;;;18.20;99.90;;;;;;5051866;28;20201;-86
2021/08/08 07:02:14;;;;;;;19.55;4.60;;;18.30;99.90;;;;;;5029756;28;20483;-85
2021/08/08 07:04:41;;;;;;;13.75;3.50;;;18.30;99.90;;;;;;5060652;28;20194;-82
2021/08/08 07:07:07;;;;;;;21.52;5.53;;;18.30;99.90;;;;;;5052391;28;20210;-87
2021/08/08 07:09:35;;;;;;;17.42;3.92;;;18.40;99.90;;;;;;5047926;28;20669;-77
2021/08/08 07:12:02;;;;;;;15.40;4.10;;;18.30;99.90;;;;;;5047274;28;20228;-84
2021/08/08 07:14:33;;;;;;;14.88;4.30;;;18.30;99.90;;;;;;5045075;28;20295;-92
2021/08/08 07:17:00;;;;;;;14.02;4.22;;;18.30;99.90;;;;;;5047380;28;20198;-76
2021/08/08 07:19:27;;;;;;;12.23;3.92;;;18.60;99.90;;;;;;5046511;28;20819;-86
2021/08/08 07:21:54;;;;;;;19.27;4.20;;;18.90;99.90;;;;;;5039437;28;20206;-83
2021/08/08 07:24:21;;;;;;;15.15;3.67;;;19.20;99.90;;;;;;5027104;28;20229;-84
2021/08/08 07:26:49;;;;;;;16.40;4.55;;;19.20;99.90;;;;;;5045075;28;20217;-83
2021/08/08 07:29:16;;;;;;;16.52;4.22;;;19.20;99.90;;;;;;5047048;28;20190;-80
2021/08/08 07:31:42;;;;;;;15.23;4.60;;;19.20;99.90;;;;;;5046179;28;20202;-89
2021/08/08 07:34:11;;;;;;;16.75;3.80;;;19.10;99.90;;;;;;5045823;28;20217;-88
2021/08/08 07:36:38;;;;;;;14.45;4.38;;;19.10;99.90;;;;;;5048989;28;20201;-79
2021/08/08 07:39:05;;;;;;;18.17;4.03;;;19.10;99.90;;;;;;5047824;28;20222;-81
2021/08/08 07:41:32;;;;;;;16.35;4.00;;;19.10;99.90;;;;;;5048970;28;20206;-81
2021/08/08 07:44:00;;;;;;;14.43;3.72;;;19.10;99.90;;;;;;5047533;28;20226;-82
2021/08/08 07:46:27;;;;;;;14.77;4.45;;;19.10;99.90;;;;;;5025887;28;20693;-78
2021/08/08 07:48:53;;;;;;;17.70;4.60;;;19.20;99.90;;;;;;5026766;28;20685;-77
2021/08/08 07:51:20;;;;;;;18.98;4.18;;;19.30;99.90;;;;;;5027551;28;20538;-82
2021/08/08 07:53:47;;;;;;;14.27;3.50;;;19.30;99.90;;;;;;5029187;28;20221;-82
2021/08/08 07:56:13;;;;;;;15.70;3.65;;;19.40;99.90;;;;;;5047034;28;20202;-89
2021/08/08 07:58:41;;;;;;;17.38;4.85;;;19.40;99.90;;;;;;5047247;28;20212;-81
2021/08/08 08:01:09;;;;;;;14.07;3.97;;;19.60;99.90;;;;;;5047435;28;20285;-84
2021/08/08 08:03:36;;;;;;;17.05;4.40;;;19.70;99.90;;;;;;5041163;28;20736;-86
2021/08/08 08:06:03;;;;;;;19.77;4.85;;;19.70;99.90;;;;;;5027973;28;20202;-81
2021/08/08 08:08:30;;;;;;;18.05;4.10;;;19.70;99.90;;;;;;5027594;28;20194;-87
2021/08/08 08:10:56;;;;;;;18.58;4.25;;;19.60;99.90;;;;;;5043205;28;20213;-84
2021/08/08 08:13:23;;;;;;;15.32;4.22;;;19.80;99.90;;;;;;5047454;28;20234;-78
2021/08/08 08:15:51;;;;;;;16.13;4.00;;;20.00;99.90;;;;;;5049147;28;20289;-77
2021/08/08 08:18:19;;;;;;;17.92;5.03;;;20.20;99.90;;;;;;5049207;28;20210;-84
2021/08/08 08:20:46;;;;;;;13.88;4.22;;;20.20;99.90;;;;;;5047123;28;20884;-77
2021/08/08 08:23:13;;;;;;;14.60;4.63;;;20.20;99.90;;;;;;5030845;28;20237;-77
2021/08/08 08:25:39;;;;;;;12.93;3.63;;;20.40;99.90;;;;;;5026459;28;20202;-87
2021/08/08 08:28:06;;;;;;;14.77;3.38;;;20.40;99.90;;;;;;5045385;28;20213;-81
2021/08/08 08:30:34;;;;;;;18.48;3.88;;;20.50;99.90;;;;;;5050097;28;20316;-82
2021/08/08 08:33:04;;;;;;;15.15;3.97;;;20.50;99.90;;;;;;5049893;28;20260;-83
2021/08/08 08:35:33;;;;;;;17.73;4.85;;;20.60;99.90;;;;;;5051165;28;20190;-83
2021/08/08 08:38:00;;;;;;;20.95;4.78;;;20.70;99.90;;;;;;5050477;28;20212;-83
2021/08/08 08:40:27;;;;;;;15.20;4.18;;;20.80;99.90;;;;;;5048664;28;20679;-84
2021/08/08 08:42:57;;;;;;;19.02;4.07;;;20.60;99.90;;;;;;5049410;28;20198;-77
2021/08/08 08:45:24;;;;;;;16.23;4.72;;;20.40;99.90;;;;;;5049605;28;20194;-80
2021/08/08 08:47:52;;;;;;;20.20;5.88;;;20.40;99.90;;;;;;5049862;28;20204;-76
2021/08/08 08:50:22;;;;;;;14.40;4.68;;;20.20;99.90;;;;;;5041286;28;20774;-88
2021/08/08 08:52:52;;;;;;;13.18;4.25;;;20.00;99.90;;;;;;5048345;28;20564;-77
2021/08/08 08:55:19;;;;;;;15.65;4.53;;;20.00;99.90;;;;;;5047244;28;20920;-86
2021/08/08 08:57:46;;;;;;;21.65;5.07;;;20.40;99.90;;;;;;5031234;28;20205;-79
2021/08/08 09:00:13;;;;;;;20.30;4.63;;;20.80;99.90;;;;;;5030800;28;20207;-84
2021/08/08 09:02:40;;;;;;;13.98;4.28;;;21.00;99.90;;;;;;5035514;28;20218;-79
2021/08/08 09:05:08;;;;;;;14.13;4.47;;;21.00;99.90;;;;;;5049966;28;20218;-84
2021/08/08 09:07:35;;;;;;;21.63;5.15;;;20.90;99.90;;;;;;5050549;28;20202;-80
2021/08/08 09:10:10;;;;;;;17.35;4.80;;;21.00;99.90;;;;;;5050270;28;20206;-78
2021/08/08 09:12:37;;;;;;;17.65;4.82;;;21.20;99.90;;;;;;5051046;28;20588;-88
2021/08/08 09:15:06;;;;;;;17.23;4.53;;;21.10;99.90;;;;;;5051377;28;20233;-93
2021/08/08 09:17:36;;;;;;;21.15;5.00;;;20.80;99.90;;;;;;5049674;28;20209;-87
2021/08/08 09:20:05;;;;;;;18.42;4.15;;;20.70;99.90;;;;;;5046436;28;20667;-84
2021/08/08 09:22:32;;;;;;;20.58;5.03;;;20.70;99.90;;;;;;5047659;28;20198;-84
2021/08/08 09:24:59;;;;;;;12.60;4.43;;;20.90;99.90;;;;;;5050369;28;20229;-86
2021/08/08 09:27:39;;;;;;;19.05;5.32;;;21.20;99.90;;;;;;5050534;28;20210;-84
2021/08/08 09:30:18;;;;;;;13.63;4.63;;;21.50;99.90;;;;;;5050420;28;20198;-88
2021/08/08 09:32:45;;;;;;;16.90;4.65;;;21.40;99.90;;;;;;5050196;28;20602;-80
2021/08/08 09:35:19;;;;;;;20.17;4.65;;;21.30;99.90;;;;;;5049344;28;20548;-83
2021/08/08 09:37:59;;;;;;;16.58;4.30;;;21.10;99.90;;;;;;5049651;28;20201;-85
2021/08/08 09:40:25;;;;;;;17.23;4.53;;;21.00;99.90;;;;;;5052276;28;20279;-85
2021/08/08 09:42:54;;;;;;;16.40;4.93;;;21.10;99.90;;;;;;5051661;28;20228;-83
2021/08/08 09:45:21;;;;;;;22.05;4.82;;;21.00;99.90;;;;;;5051174;28;20222;-85
2021/08/08 09:47:49;;;;;;;16.10;4.22;;;20.90;99.90;;;;;;5052250;28;20206;-85
2021/08/08 09:50:18;;;;;;;14.10;4.00;;;20.90;99.90;;;;;;5052287;28;20201;-83
2021/08/08 09:52:51;;;;;;;19.83;4.38;;;21.00;99.90;;;;;;5049547;28;20210;-81
2021/08/08 09:55:23;;;;;;;17.40;4.45;;;20.90;99.90;;;;;;5048319;28;20208;-81
2021/08/08 09:57:50;;;;;;;16.45;4.28;;;21.00;99.90;;;;;;5045940;28;20198;-80
2021/08/08 10:00:26;;;;;;;18.60;5.00;;;21.10;99.90;;;;;;5047068;28;20604;-87
2021/08/08 10:02:53;;;;;;;19.90;4.57;;;21.10;99.90;;;;;;5049684;28;20652;-80
2021/08/08 10:05:21;;;;;;;21.33;5.20;;;21.10;99.90;;;;;;5050368;28;20308;-85
2021/08/08 10:07:49;;;;;;;17.63;4.43;;;20.90;99.90;;;;;;5050962;28;20201;-85
2021/08/08 10:10:17;;;;;;;19.85;6.10;;;20.70;99.90;;;;;;5050630;28;20214;-85
2021/08/08 10:13:06;;;;;;;16.48;4.97;;;20.40;99.90;;;;;;5050956;28;20297;-79
2021/08/08 10:15:36;;;;;;;19.90;5.78;;;20.20;99.90;;;;;;5051367;28;20229;-85
2021/08/08 10:18:03;;;;;;;20.85;6.38;;;20.20;99.90;;;;;;5050004;28;20190;-83
2021/08/08 10:20:32;;;;;;;21.27;5.03;;;20.40;99.90;;;;;;5049848;28;20649;-80
2021/08/08 10:23:01;;;;;;;24.05;6.60;;;20.50;99.90;;;;;;5050757;28;20205;-78
2021/08/08 10:25:28;;;;;;;15.70;4.70;;;20.60;99.90;;;;;;5055915;28;20605;-79
2021/08/08 10:27:55;;;;;;;19.55;4.82;;;20.60;99.90;;;;;;5054706;28;20198;-81
2021/08/08 10:30:23;;;;;;;14.52;4.70;;;20.50;99.90;;;;;;5051723;28;20209;-88
2021/08/08 10:32:51;;;;;;;21.75;5.55;;;20.40;99.90;;;;;;5051656;28;20202;-88
2021/08/08 10:35:18;;;;;;;17.35;5.07;;;20.10;99.90;;;;;;5051759;28;20193;-78
2021/08/08 10:37:47;;;;;;;21.20;4.72;;;19.90;99.90;;;;;;5049724;28;20198;-85
2021/08/08 10:40:25;;;;;;;19.15;5.50;;;20.20;99.90;;;;;;5049081;28;20225;-84
2021/08/08 10:42:52;;;;;;;18.67;4.78;;;20.20;99.90;;;;;;5049648;28;20198;-83
2021/08/08 10:45:23;;;;;;;12.65;4.40;;;20.20;99.90;;;;;;5048578;28;20238;-77
2021/08/08 10:47:57;;;;;;;18.77;4.47;;;20.50;99.90;;;;;;5048676;28;20201;-78
2021/08/08 10:50:34;;;;;;;15.38;4.00;;;20.70;99.90;;;;;;5039734;28;20272;-86
2021/08/08 10:53:01;;;;;;;14.73;4.38;;;20.90;99.90;;;;;;5031068;28;20869;-83
2021/08/08 10:55:30;;;;;;;14.40;4.45;;;21.10;99.90;;;;;;5047901;28;20194;-79
2021/08/08 10:57:59;;;;;;;19.65;4.57;;;21.10;99.90;;;;;;5050340;28;20209;-84
2021/08/08 11:00:32;;;;;;;16.90;4.30;;;21.00;99.90;;;;;;5053627;28;20205;-89
2021/08/08 11:03:14;;;;;;;15.10;4.10;;;20.80;99.90;;;;;;5057951;28;20186;-84
2021/08/08 11:05:42;;;;;;;12.65;3.85;;;20.70;99.90;;;;;;5050922;28;20264;-80
2021/08/08 11:08:09;;;;;;;16.15;4.57;;;20.90;99.90;;;;;;5048845;28;20221;-85
2021/08/08 11:10:39;;;;;;;14.93;4.28;;;21.00;99.90;;;;;;5048180;28;20197;-80
2021/08/08 11:13:17;;;;;;;18.40;4.40;;;21.10;99.90;;;;;;5046999;28;20290;-77
2021/08/08 11:15:45;;;;;;;16.15;4.07;;;21.30;99.90;;;;;;5048227;28;20201;-84
2021/08/08 11:18:14;;;;;;;14.80;3.75;;;21.40;99.90;;;;;;5047302;28;20541;-79
2021/08/08 11:20:41;;;;;;;13.50;4.30;;;21.40;99.90;;;;;;5047163;28;20205;-86
2021/08/08 11:23:08;;;;;;;14.80;3.53;;;21.40;99.90;;;;;;5032005;28;20202;-80
2021/08/08 11:25:40;;;;;;;15.70;4.22;;;21.30;99.90;;;;;;5027576;28;20253;-81
2021/08/08 11:28:07;;;;;;;15.52;4.68;;;21.40;99.90;;;;;;5038522;28;20210;-84
2021/08/08 11:30:42;;;;;;;18.50;4.45;;;21.50;99.90;;;;;;5046216;28;20229;-80
2021/08/08 11:33:09;;;;;;;21.33;4.68;;;21.50;99.90;;;;;;5047888;28;20198;-81
2021/08/08 11:35:38;;;;;;;12.65;3.88;;;21.60;99.90;;;;;;5048039;28;20208;-81
2021/08/08 11:38:14;;;;;;;18.30;4.07;;;21.70;99.90;;;;;;5048345;28;20202;-82
2021/08/08 11:40:44;;;;;;;14.23;3.42;;;21.70;99.90;;;;;;5047767;28;20225;-79
2021/08/08 11:43:11;;;;;;;11.68;3.88;;;21.40;99.90;;;;;;5048081;28;20637;-83
2021/08/08 11:45:40;;;;;;;19.50;4.70;;;21.30;99.90;;;;;;5046301;28;20228;-85
2021/08/08 11:48:08;;;;;;;15.95;4.07;;;21.50;99.90;;;;;;5046892;28;20873;-85
2021/08/08 11:50:39;;;;;;;14.55;3.90;;;21.60;99.90;;;;;;5029039;28;20218;-83
2021/08/08 11:53:07;;;;;;;19.20;4.13;;;21.60;99.90;;;;;;5026871;28;20429;-81
2021/08/08 11:55:35;;;;;;;13.18;3.38;;;21.70;99.90;;;;;;5028139;28;20202;-85
2021/08/08 11:58:09;;;;;;;11.95;3.65;;;21.70;99.90;;;;;;5029396;28;20214;-81
2021/08/08 12:00:38;;;;;;;15.60;4.45;;;21.50;99.90;;;;;;5029322;28;20205;-87
2021/08/08 12:03:06;;;;;;;17.88;4.32;;;21.50;99.90;;;;;;5037094;28;20210;-79
2021/08/08 12:05:37;;;;;;;11.93;3.63;;;21.60;99.90;;;;;;5049347;28;20723;-82
2021/08/08 12:08:05;;;;;;;18.88;4.07;;;21.70;99.90;;;;;;5051412;28;20206;-88
2021/08/08 12:10:34;;;;;;;14.07;3.83;;;21.80;99.90;;;;;;5051423;28;20205;-81
2021/08/08 12:13:01;;;;;;;15.05;4.57;;;21.90;99.90;;;;;;5052270;28;20209;-80
2021/08/08 12:15:35;;;;;;;17.52;4.28;;;21.80;99.90;;;;;;5051682;28;20846;-81
2021/08/08 12:18:03;;;;;;;18.38;4.15;;;22.00;99.90;;;;;;5052339;28;20205;-85
2021/08/08 12:20:35;;;;;;;11.52;3.33;;;22.20;99.90;;;;;;5051590;28;20209;-84
2021/08/08 12:23:08;;;;;;;12.73;3.45;;;22.40;99.90;;;;;;5050457;28;20198;-80
2021/08/08 12:25:36;;;;;;;13.75;3.50;;;22.60;99.90;;;;;;5030722;28;20245;-81
2021/08/08 12:28:03;;;;;;;15.35;4.78;;;22.90;99.90;;;;;;5029707;28;20214;-82
2021/08/08 12:30:30;;;;;;;17.02;4.25;;;22.90;99.90;;;;;;5062878;22;20267;-79
2021/08/08 12:33:05;;;;;;;17.08;4.15;;;22.90;99.90;;;;;;5069559;28;20201;-78
2021/08/08 12:35:38;;;;;;;14.35;4.28;;;22.90;99.90;;;;;;5050307;28;20205;-85
2021/08/08 12:38:11;;;;;;;12.63;4.07;;;22.80;99.90;;;;;;5049261;28;20202;-85
2021/08/08 12:40:43;;;;;;;18.67;4.35;;;22.70;99.90;;;;;;5049674;28;20263;-83
2021/08/08 12:43:10;;;;;;;13.88;4.60;;;22.70;99.90;;;;;;5049460;28;20210;-82